createdAt,value
2022-10-17T00:00:20.616Z,13.40
2022-10-17T00:03:06.402Z,14.50
2022-10-17T00:05:51.740Z,13.67
2022-10-17T00:08:37.967Z,15.70
2022-10-17T00:11:24.785Z,15.73
2022-10-17T00:14:09.920Z,14.67
2022-10-17T00:16:55.110Z,14.70
2022-10-17T00:19:40.372Z,14.50
2022-10-17T00:22:26.357Z,15.50
2022-10-17T00:25:12.974Z,14.77
2022-10-17T00:27:58.003Z,12.83
2022-10-17T00:30:43.282Z,13.53
2022-10-17T00:33:30.883Z,15.23
2022-10-17T00:36:19.471Z,14.17
2022-10-17T00:39:04.836Z,12.93
2022-10-17T00:41:51.307Z,13.33
2022-10-17T00:44:36.544Z,12.60
2022-10-17T00:47:23.074Z,13.03
2022-10-17T00:50:09.591Z,13.77
2022-10-17T00:52:58.720Z,12.77
2022-10-17T00:55:54.134Z,14.23
2022-10-17T00:58:39.602Z,12.27
2022-10-17T01:01:25.572Z,12.00
2022-10-17T01:04:11.003Z,9.93
2022-10-17T01:06:58.443Z,13.70
2022-10-17T01:09:46.239Z,11.10
2022-10-17T01:12:41.196Z,14.23
2022-10-17T01:15:37.029Z,12.67
2022-10-17T01:18:49.204Z,12.83
2022-10-17T01:22:06.794Z,10.73
2022-10-17T01:25:04.235Z,11.67
2022-10-17T01:28:01.972Z,13.03
2022-10-17T01:31:05.569Z,10.23
2022-10-17T01:34:17.148Z,10.50
2022-10-17T01:37:17.470Z,12.37
2022-10-17T01:40:16.556Z,12.13
2022-10-17T01:43:22.054Z,12.90
2022-10-17T01:46:18.313Z,11.50
2022-10-17T01:49:07.206Z,11.97
2022-10-17T01:52:24.978Z,11.73
2022-10-17T01:55:16.771Z,11.10
2022-10-17T01:58:08.214Z,10.47
2022-10-17T02:00:56.607Z,12.63
2022-10-17T02:03:45.208Z,10.00
2022-10-17T02:06:34.900Z,9.33
2022-10-17T02:09:23.836Z,9.47
2022-10-17T02:12:12.023Z,10.53
2022-10-17T02:15:36.808Z,13.13
2022-10-17T02:18:28.290Z,13.02
2022-10-17T02:21:22.984Z,9.73
2022-10-17T02:24:17.878Z,8.90
2022-10-17T02:27:17.166Z,8.57
2022-10-17T02:30:14.696Z,10.10
2022-10-17T02:33:06.433Z,9.80
2022-10-17T02:35:56.942Z,9.93
2022-10-17T02:38:44.480Z,8.53
2022-10-17T02:41:32.994Z,14.23
2022-10-17T02:44:20.186Z,9.17
2022-10-17T02:47:31.609Z,7.43
2022-10-17T02:50:18.542Z,7.83
2022-10-17T02:53:15.388Z,7.40
2022-10-17T02:56:10.603Z,9.77
2022-10-17T02:58:59.712Z,10.53
2022-10-17T03:01:45.267Z,9.03
2022-10-17T03:04:30.408Z,9.53
2022-10-17T03:07:15.507Z,8.93
2022-10-17T03:10:00.774Z,8.60
2022-10-17T03:12:45.959Z,9.77
2022-10-17T03:15:31.391Z,10.73
2022-10-17T03:18:17.640Z,9.40
2022-10-17T03:21:04.505Z,10.00
2022-10-17T03:23:51.035Z,7.70
2022-10-17T03:26:38.243Z,10.57
2022-10-17T03:29:23.496Z,10.60
2022-10-17T03:32:08.791Z,9.07
2022-10-17T03:34:54.906Z,9.67
2022-10-17T03:37:40.180Z,10.20
2022-10-17T03:40:25.387Z,9.20
2022-10-17T03:43:11.923Z,7.97
2022-10-17T03:45:59.542Z,8.87
2022-10-17T03:48:44.821Z,8.57
2022-10-17T03:51:30.101Z,10.33
2022-10-17T03:54:21.482Z,8.83
2022-10-17T03:57:06.721Z,8.53
2022-10-17T03:59:52.581Z,10.70
2022-10-17T04:02:39.368Z,9.87
2022-10-17T04:05:24.596Z,9.23
2022-10-17T04:08:09.937Z,10.37
2022-10-17T04:11:20.288Z,10.60
2022-10-17T04:14:06.876Z,10.80
2022-10-17T04:16:53.538Z,10.20
2022-10-17T04:19:39.787Z,7.77
2022-10-17T04:22:25.618Z,8.40
2022-10-17T04:25:11.294Z,8.97
2022-10-17T04:28:00.030Z,8.10
2022-10-17T04:30:45.700Z,9.10
2022-10-17T04:33:33.483Z,9.47
2022-10-17T04:36:20.204Z,8.70
2022-10-17T04:39:06.003Z,10.13
2022-10-17T04:41:51.813Z,9.23
2022-10-17T04:44:37.729Z,7.17
2022-10-17T04:47:24.140Z,8.47
2022-10-17T04:50:09.630Z,9.97
2022-10-17T04:52:54.907Z,7.13
2022-10-17T04:55:40.613Z,7.13
2022-10-17T04:58:28.482Z,7.40
2022-10-17T05:01:16.254Z,8.57
2022-10-17T05:04:04.077Z,6.73
2022-10-17T05:06:49.286Z,5.83
2022-10-17T05:09:50.055Z,8.00
2022-10-17T05:12:36.789Z,5.80
2022-10-17T05:15:23.679Z,6.00
2022-10-17T05:18:11.507Z,8.53
2022-10-17T05:20:57.032Z,6.30
2022-10-17T05:23:42.961Z,5.07
2022-10-17T05:26:28.623Z,8.83
2022-10-17T05:29:14.926Z,7.73
2022-10-17T05:32:06.063Z,9.23
2022-10-17T05:34:52.966Z,8.13
2022-10-17T05:37:40.327Z,8.80
2022-10-17T05:40:25.607Z,8.77
2022-10-17T05:43:12.427Z,6.43
2022-10-17T05:45:57.950Z,8.90
2022-10-17T05:48:43.335Z,8.80
2022-10-17T05:51:28.683Z,9.67
2022-10-17T05:54:15.421Z,45.77
2022-10-17T05:57:00.626Z,97.33
2022-10-17T05:59:49.558Z,169.83
2022-10-17T06:02:38.320Z,185.47
2022-10-17T06:05:24.287Z,165.97
2022-10-17T06:08:09.787Z,164.47
2022-10-17T06:10:55.407Z,161.60
2022-10-17T06:13:41.594Z,144.10
2022-10-17T06:16:36.357Z,138.00
2022-10-17T06:19:21.797Z,125.80
2022-10-17T06:22:07.323Z,119.67
2022-10-17T06:24:53.934Z,108.37
2022-10-17T06:27:39.380Z,110.03
2022-10-17T06:30:25.701Z,105.90
2022-10-17T06:33:11.190Z,103.60
2022-10-17T06:35:56.941Z,106.53
2022-10-17T06:38:44.090Z,99.80
2022-10-17T06:41:56.990Z,98.37
2022-10-17T06:44:56.576Z,113.77
2022-10-17T06:47:55.361Z,99.90
2022-10-17T06:51:10.005Z,113.13
2022-10-17T06:54:05.232Z,110.20
2022-10-17T06:57:05.677Z,108.80
2022-10-17T07:03:02.097Z,110.87
2022-10-17T07:05:52.274Z,120.93
2022-10-17T07:08:37.768Z,113.53
2022-10-17T07:11:23.505Z,120.97
2022-10-17T07:14:10.920Z,118.63
2022-10-17T07:16:56.598Z,117.47
2022-10-17T07:19:46.104Z,122.43
2022-10-17T07:22:31.530Z,128.53
2022-10-17T07:25:17.455Z,131.20
2022-10-17T07:28:08.575Z,187.20
2022-10-17T07:30:54.951Z,312.97
2022-10-17T07:33:40.238Z,461.90
2022-10-17T07:36:26.113Z,529.17
2022-10-17T07:39:13.016Z,577.13
2022-10-17T07:41:59.540Z,588.83
2022-10-17T07:44:47.470Z,613.83
2022-10-17T07:47:36.085Z,609.83
2022-10-17T07:50:24.670Z,590.20
2022-10-17T07:53:09.909Z,588.50
2022-10-17T07:55:55.245Z,584.53
2022-10-17T07:58:40.433Z,570.90
2022-10-17T08:01:26.004Z,572.83
2022-10-17T08:04:11.177Z,554.60
2022-10-17T08:07:05.629Z,534.90
2022-10-17T08:09:57.016Z,523.03
2022-10-17T08:12:42.461Z,520.43
2022-10-17T08:15:31.055Z,509.17
2022-10-17T08:18:18.334Z,508.13
2022-10-17T08:21:06.420Z,490.63
2022-10-17T08:23:51.791Z,494.53
2022-10-17T08:26:40.666Z,474.07
2022-10-17T08:29:29.222Z,483.17
2022-10-17T08:32:14.671Z,476.77
2022-10-17T08:35:00.088Z,460.43
2022-10-17T08:37:45.339Z,454.63
2022-10-17T08:40:35.533Z,456.37
2022-10-17T08:43:37.488Z,454.43
2022-10-17T08:46:28.676Z,444.07
2022-10-17T08:49:29.955Z,442.97
2022-10-17T08:52:25.453Z,440.83
2022-10-17T08:55:17.476Z,432.83
2022-10-17T08:58:02.912Z,437.23
2022-10-17T09:01:01.151Z,426.57
2022-10-17T09:04:27.258Z,424.97
2022-10-17T09:07:18.620Z,426.37
2022-10-17T09:10:10.569Z,420.83
2022-10-17T09:13:24.010Z,409.87
2022-10-17T09:16:30.245Z,400.38
2022-10-17T09:19:21.275Z,407.50
2022-10-17T09:22:16.064Z,398.03
2022-10-17T09:25:07.104Z,396.27
2022-10-17T09:27:59.345Z,388.47
2022-10-17T09:30:48.082Z,379.63
2022-10-17T09:33:53.975Z,375.57
2022-10-17T09:36:40.919Z,372.60
2022-10-17T09:39:29.229Z,376.70
2022-10-17T09:42:21.402Z,381.10
2022-10-17T09:45:26.161Z,370.43
2022-10-17T09:48:17.296Z,376.20
2022-10-17T09:51:14.756Z,366.43
2022-10-17T09:54:22.854Z,362.97
2022-10-17T09:57:10.590Z,367.40
2022-10-17T09:59:57.851Z,356.97
2022-10-17T10:02:43.413Z,359.40
2022-10-17T10:05:28.488Z,356.57
2022-10-17T10:08:17.200Z,343.93
2022-10-17T10:11:06.575Z,350.43
2022-10-17T10:13:53.085Z,342.27
2022-10-17T10:16:43.314Z,347.37
2022-10-17T10:19:31.290Z,344.23
2022-10-17T10:22:18.186Z,334.73
2022-10-17T10:25:16.778Z,341.07
2022-10-17T10:28:03.123Z,324.20
2022-10-17T10:30:51.359Z,328.43
2022-10-17T10:33:44.185Z,327.63
2022-10-17T10:36:44.914Z,320.63
2022-10-17T10:39:55.238Z,320.07
2022-10-17T10:42:42.068Z,315.33
2022-10-17T10:45:47.416Z,321.20
2022-10-17T10:48:37.644Z,297.77
2022-10-17T10:51:35.386Z,195.90
2022-10-17T10:54:35.731Z,262.23
2022-10-17T10:57:25.666Z,290.47
2022-10-17T11:00:22.362Z,294.33
2022-10-17T11:03:19.062Z,296.77
2022-10-17T11:06:13.799Z,288.80
2022-10-17T11:09:36.986Z,289.03
2022-10-17T11:12:33.124Z,278.88
2022-10-17T11:15:21.995Z,281.60
2022-10-17T11:18:11.269Z,281.60
2022-10-17T11:21:00.151Z,280.63
2022-10-17T11:24:18.747Z,273.77
2022-10-17T11:27:06.526Z,273.20
2022-10-17T11:29:51.838Z,269.43
2022-10-17T11:32:43.938Z,271.33
2022-10-17T11:35:43.976Z,267.03
2022-10-17T11:38:55.731Z,270.20
2022-10-17T11:41:49.904Z,270.07
2022-10-17T11:44:38.397Z,265.37
2022-10-17T11:47:38.268Z,270.57
2022-10-17T11:53:45.315Z,267.53
2022-10-17T11:56:49.744Z,257.60
2022-10-17T11:59:47.261Z,264.43
2022-10-17T12:02:48.635Z,253.70
2022-10-17T12:05:46.537Z,249.00
2022-10-17T12:09:01.352Z,257.27
2022-10-17T12:11:56.953Z,250.23
2022-10-17T12:14:48.357Z,245.73
2022-10-17T12:17:40.548Z,259.03
2022-10-17T12:20:37.121Z,243.80
2022-10-17T12:23:30.888Z,240.70
2022-10-17T12:26:26.738Z,237.97
2022-10-17T12:29:29.024Z,125.63
2022-10-17T12:32:15.470Z,127.63
2022-10-17T12:35:01.398Z,175.30
2022-10-17T12:37:57.340Z,203.37
2022-10-17T12:40:48.622Z,216.77
2022-10-17T12:43:42.685Z,202.63
2022-10-17T12:46:49.189Z,205.40
2022-10-17T12:49:41.848Z,202.10
2022-10-17T12:52:35.279Z,198.17
2022-10-17T12:58:16.358Z,136.47
2022-10-17T13:01:24.066Z,167.13
2022-10-17T13:04:10.860Z,198.63
2022-10-17T13:06:59.175Z,183.07
2022-10-17T13:09:45.394Z,197.30
2022-10-17T13:12:38.931Z,189.17
2022-10-17T13:15:26.835Z,130.13
2022-10-17T13:18:19.136Z,166.60
2022-10-17T13:21:16.745Z,191.53
2022-10-17T13:24:19.994Z,184.90
2022-10-17T13:27:19.840Z,182.60
2022-10-17T13:30:37.795Z,192.13
2022-10-17T13:33:32.215Z,185.47
2022-10-17T13:36:19.714Z,186.83
2022-10-17T13:39:12.269Z,176.57
2022-10-17T13:41:59.618Z,180.60
2022-10-17T13:44:46.213Z,180.67
2022-10-17T13:47:36.675Z,174.67
2022-10-17T13:50:43.543Z,180.93
2022-10-17T13:53:35.242Z,164.90
2022-10-17T13:56:29.781Z,86.40
2022-10-17T13:59:40.177Z,120.30
2022-10-17T14:02:29.305Z,154.03
2022-10-17T14:05:20.505Z,151.27
2022-10-17T14:08:11.799Z,156.30
2022-10-17T14:10:58.536Z,152.47
2022-10-17T14:13:50.180Z,139.73
2022-10-17T14:16:39.064Z,155.20
2022-10-17T14:19:34.941Z,151.63
2022-10-17T14:22:23.303Z,146.60
2022-10-17T14:25:32.049Z,144.90
2022-10-17T14:28:18.457Z,145.67
2022-10-17T14:31:10.063Z,145.23
2022-10-17T14:33:55.851Z,144.83
2022-10-17T14:36:44.248Z,140.90
2022-10-17T14:39:29.875Z,83.90
2022-10-17T14:42:23.170Z,94.00
2022-10-17T14:45:14.859Z,133.57
2022-10-17T14:48:04.442Z,136.50
2022-10-17T14:51:19.549Z,147.53
2022-10-17T14:54:24.788Z,154.63
2022-10-17T14:57:22.231Z,176.60
2022-10-17T15:00:08.395Z,196.30
2022-10-17T15:02:55.060Z,261.27
2022-10-17T15:05:40.515Z,281.03
2022-10-17T15:08:25.978Z,257.17
2022-10-17T15:11:12.019Z,268.07
2022-10-17T15:13:57.356Z,306.70
2022-10-17T15:16:42.543Z,298.07
2022-10-17T15:19:27.877Z,302.73
2022-10-17T15:22:13.600Z,288.10
2022-10-17T15:24:59.170Z,286.10
2022-10-17T15:27:44.445Z,196.60
2022-10-17T15:30:32.459Z,156.93
2022-10-17T15:33:18.031Z,210.23
2022-10-17T15:36:03.564Z,233.57
2022-10-17T15:38:50.592Z,245.93
2022-10-17T15:41:35.977Z,238.97
2022-10-17T15:44:21.410Z,227.23
2022-10-17T15:47:07.137Z,236.97
2022-10-17T15:49:53.314Z,227.33
2022-10-17T15:52:39.008Z,237.70
2022-10-17T15:55:24.498Z,234.33
2022-10-17T15:58:15.327Z,235.27
2022-10-17T16:01:00.921Z,238.27
2022-10-17T16:03:49.793Z,233.80
2022-10-17T16:06:35.690Z,235.23
2022-10-17T16:09:21.527Z,236.27
2022-10-17T16:12:14.361Z,225.67
2022-10-17T16:14:59.932Z,214.50
2022-10-17T16:17:45.960Z,228.40
2022-10-17T16:20:32.085Z,221.70
2022-10-17T16:23:17.248Z,156.93
2022-10-17T16:26:03.014Z,186.90
2022-10-17T16:28:48.988Z,189.37
2022-10-17T16:31:36.521Z,189.90
2022-10-17T16:34:22.218Z,184.93
2022-10-17T16:37:07.871Z,179.90
2022-10-17T16:39:53.672Z,175.67
2022-10-17T16:42:38.980Z,178.60
2022-10-17T16:45:24.353Z,181.90
2022-10-17T16:48:10.643Z,176.07
2022-10-17T16:50:56.134Z,168.77
2022-10-17T16:53:45.686Z,109.70
2022-10-17T16:56:33.048Z,142.70
2022-10-17T16:59:18.826Z,141.33
2022-10-17T17:02:04.395Z,141.80
2022-10-17T17:04:49.967Z,147.97
2022-10-17T17:07:35.429Z,144.53
2022-10-17T17:10:20.698Z,135.83
2022-10-17T17:13:05.978Z,135.60
2022-10-17T17:15:53.739Z,131.77
2022-10-17T17:18:40.418Z,139.90
2022-10-17T17:21:27.831Z,143.63
2022-10-17T17:24:13.951Z,129.03
2022-10-17T17:26:59.922Z,127.60
2022-10-17T17:29:47.344Z,128.40
2022-10-17T17:32:33.121Z,127.90
2022-10-17T17:35:18.673Z,129.60
2022-10-17T17:38:04.560Z,117.30
2022-10-17T17:40:51.302Z,117.60
2022-10-17T17:43:36.493Z,112.00
2022-10-17T17:46:22.939Z,107.93
2022-10-17T17:49:09.482Z,122.80
2022-10-17T17:51:55.005Z,126.33
2022-10-17T17:54:41.058Z,113.67
2022-10-17T17:57:29.375Z,115.73
2022-10-17T18:00:15.034Z,106.70
2022-10-17T18:03:02.293Z,115.00
2022-10-17T18:05:48.583Z,112.70
2022-10-17T18:08:35.319Z,113.63
2022-10-17T18:11:22.207Z,102.47
2022-10-17T18:14:12.202Z,98.20
2022-10-17T18:16:57.958Z,99.10
2022-10-17T18:19:43.430Z,99.77
2022-10-17T18:22:29.060Z,100.03
2022-10-17T18:25:14.738Z,101.03
2022-10-17T18:28:00.687Z,91.57
2022-10-17T18:30:46.445Z,89.67
2022-10-17T18:33:31.792Z,91.67
2022-10-17T18:36:17.237Z,85.57
2022-10-17T18:39:02.456Z,92.80
2022-10-17T18:41:47.778Z,92.03
2022-10-17T18:44:33.256Z,95.40
2022-10-17T18:47:18.366Z,89.23
2022-10-17T18:50:03.879Z,87.47
2022-10-17T18:52:49.803Z,88.40
2022-10-17T18:55:39.471Z,84.60
2022-10-17T18:58:25.138Z,82.33
2022-10-17T19:01:17.847Z,86.40
2022-10-17T19:04:03.223Z,79.07
2022-10-17T19:06:48.555Z,87.93
2022-10-17T19:09:34.142Z,79.60
2022-10-17T19:12:19.725Z,87.17
2022-10-17T19:15:05.395Z,88.53
2022-10-17T19:17:50.983Z,86.00
2022-10-17T19:20:36.502Z,84.27
2022-10-17T19:23:22.109Z,86.23
2022-10-17T19:26:12.737Z,83.47
2022-10-17T19:29:00.332Z,87.17
2022-10-17T19:31:47.579Z,80.77
2022-10-17T19:34:33.240Z,77.97
2022-10-17T19:37:18.771Z,82.23
2022-10-17T19:40:04.818Z,82.20
2022-10-17T19:42:50.626Z,79.93
2022-10-17T19:45:36.140Z,76.50
2022-10-17T19:48:21.552Z,77.20
2022-10-17T19:51:08.853Z,82.53
2022-10-17T19:53:56.763Z,76.43
2022-10-17T19:56:43.467Z,74.27
2022-10-17T19:59:28.912Z,75.67
2022-10-17T20:02:14.260Z,75.03
2022-10-17T20:05:17.640Z,75.33
2022-10-17T20:08:03.909Z,73.53
2022-10-17T20:10:49.107Z,75.93
2022-10-17T20:13:35.860Z,75.33
2022-10-17T20:16:26.631Z,71.07
2022-10-17T20:19:13.048Z,72.53
2022-10-17T20:21:58.514Z,70.50
2022-10-17T20:24:43.787Z,72.67
2022-10-17T20:27:29.000Z,73.73
2022-10-17T20:30:14.457Z,74.30
2022-10-17T20:32:59.953Z,67.20
2022-10-17T20:38:35.945Z,73.07
2022-10-17T20:41:21.693Z,65.20
2022-10-17T20:44:07.158Z,66.97
2022-10-17T20:47:01.581Z,64.97
2022-10-17T20:49:48.159Z,64.87
2022-10-17T20:52:33.350Z,66.53
2022-10-17T20:55:18.737Z,61.93
2022-10-17T20:58:04.231Z,63.73
2022-10-17T21:00:49.710Z,66.10
2022-10-17T21:03:38.719Z,63.97
2022-10-17T21:06:26.194Z,63.30
2022-10-17T21:09:11.653Z,61.37
2022-10-17T21:11:57.544Z,59.37
2022-10-17T21:14:42.677Z,64.37
2022-10-17T21:17:28.235Z,59.07
2022-10-17T21:20:13.379Z,60.00
2022-10-17T21:23:00.571Z,62.77
2022-10-17T21:25:46.183Z,59.27
2022-10-17T21:28:32.415Z,67.03
2022-10-17T21:31:18.797Z,61.63
2022-10-17T21:34:15.694Z,58.97
2022-10-17T21:37:01.234Z,60.97
2022-10-17T21:39:46.619Z,62.97
2022-10-17T21:42:32.187Z,60.17
2022-10-17T21:45:25.372Z,61.33
2022-10-17T21:48:12.949Z,57.95
2022-10-17T21:51:01.153Z,56.90
2022-10-17T21:53:46.867Z,56.73
2022-10-17T21:56:33.945Z,54.37
2022-10-17T21:59:19.364Z,61.13
2022-10-17T22:02:04.553Z,54.17
2022-10-17T22:04:49.815Z,60.30
2022-10-17T22:07:35.263Z,55.10
2022-10-17T22:10:20.547Z,56.17
2022-10-17T22:13:06.249Z,54.90
2022-10-17T22:15:51.630Z,55.93
2022-10-17T22:18:37.583Z,52.80
2022-10-17T22:21:23.549Z,52.97
2022-10-17T22:24:12.368Z,53.60
2022-10-17T22:26:57.612Z,50.53
2022-10-17T22:29:42.801Z,54.70
2022-10-17T22:32:28.012Z,52.47
2022-10-17T22:35:13.484Z,54.60
2022-10-17T22:37:58.930Z,50.90
2022-10-17T22:40:45.669Z,52.40
2022-10-17T22:43:31.141Z,54.00
2022-10-17T22:46:17.095Z,51.13
2022-10-17T22:49:02.908Z,52.73
2022-10-17T22:51:48.371Z,50.60
2022-10-17T22:54:33.615Z,48.73
2022-10-17T22:57:18.774Z,49.27
2022-10-17T23:00:06.033Z,47.53
2022-10-17T23:02:54.464Z,50.87
2022-10-17T23:05:40.203Z,48.30
2022-10-17T23:08:26.557Z,46.50
2022-10-17T23:11:12.656Z,47.83
2022-10-17T23:13:57.903Z,46.80
2022-10-17T23:16:43.199Z,48.10
2022-10-17T23:19:28.451Z,48.30
2022-10-17T23:22:13.836Z,47.43
2022-10-17T23:24:59.047Z,46.33
2022-10-17T23:27:44.242Z,41.43
2022-10-17T23:30:33.363Z,48.90
2022-10-17T23:33:19.428Z,44.67
2022-10-17T23:36:05.359Z,49.13
2022-10-17T23:38:52.715Z,42.03
2022-10-17T23:41:40.607Z,46.27
2022-10-17T23:44:25.905Z,42.57
2022-10-17T23:47:11.202Z,47.43
2022-10-17T23:49:56.900Z,44.80
2022-10-17T23:52:42.204Z,43.93
2022-10-17T23:55:27.433Z,43.60
2022-10-17T23:58:12.752Z,49.27
